createdAt,value
2022-11-02T00:00:14.871Z,21.06
2022-11-02T00:00:40.463Z,21.01
2022-11-02T00:01:12.627Z,21.11
2022-11-02T00:01:40.600Z,21.11
2022-11-02T00:02:03.993Z,21.09
2022-11-02T00:02:25.639Z,21.08
2022-11-02T00:02:47.261Z,21.05
2022-11-02T00:03:09.172Z,21.06
2022-11-02T00:03:33.319Z,21.05
2022-11-02T00:03:54.915Z,21.07
2022-11-02T00:04:16.492Z,20.95
2022-11-02T00:04:38.056Z,21.00
2022-11-02T00:05:00.608Z,20.91
2022-11-02T00:05:24.644Z,21.02
2022-11-02T00:05:46.246Z,21.05
2022-11-02T00:06:08.826Z,21.03
2022-11-02T00:06:30.381Z,20.91
2022-11-02T00:06:51.962Z,20.89
2022-11-02T00:07:13.565Z,20.93
2022-11-02T00:07:36.110Z,20.96
2022-11-02T00:07:57.823Z,20.99
2022-11-02T00:08:19.424Z,21.00
2022-11-02T00:08:41.021Z,20.99
2022-11-02T00:09:03.834Z,20.97
2022-11-02T00:09:25.393Z,21.02
2022-11-02T00:09:46.972Z,21.05
2022-11-02T00:10:09.665Z,21.00
2022-11-02T00:10:32.341Z,21.04
2022-11-02T00:10:53.908Z,21.09
2022-11-02T00:11:15.463Z,21.10
2022-11-02T00:11:37.391Z,21.12
2022-11-02T00:12:00.135Z,21.09
2022-11-02T00:12:21.743Z,21.10
2022-11-02T00:12:43.310Z,21.06
2022-11-02T00:13:05.407Z,21.09
2022-11-02T00:13:28.236Z,21.05
2022-11-02T00:13:49.774Z,21.05
2022-11-02T00:14:11.375Z,21.06
2022-11-02T00:14:32.950Z,21.07
2022-11-02T00:14:55.536Z,21.08
2022-11-02T00:15:20.193Z,21.08
2022-11-02T00:15:41.800Z,21.04
2022-11-02T00:16:05.651Z,21.08
2022-11-02T00:16:28.204Z,21.01
2022-11-02T00:16:49.931Z,21.00
2022-11-02T00:17:11.570Z,21.01
2022-11-02T00:17:34.696Z,20.99
2022-11-02T00:18:01.425Z,21.04
2022-11-02T00:18:23.177Z,21.07
2022-11-02T00:18:48.810Z,21.05
2022-11-02T00:19:10.489Z,21.09
2022-11-02T00:19:33.034Z,21.09
2022-11-02T00:19:54.618Z,21.08
2022-11-02T00:20:18.250Z,21.11
2022-11-02T00:20:41.774Z,21.12
2022-11-02T00:21:05.524Z,21.11
2022-11-02T00:21:28.096Z,21.15
2022-11-02T00:21:49.779Z,21.16
2022-11-02T00:22:11.393Z,21.20
2022-11-02T00:22:35.044Z,21.22
2022-11-02T00:22:59.047Z,21.17
2022-11-02T00:23:20.637Z,21.17
2022-11-02T00:23:43.763Z,21.19
2022-11-02T00:24:06.607Z,21.22
2022-11-02T00:24:28.324Z,21.19
2022-11-02T00:24:49.913Z,21.17
2022-11-02T00:25:14.977Z,21.17
2022-11-02T00:25:40.335Z,21.17
2022-11-02T00:26:02.927Z,21.14
2022-11-02T00:26:25.325Z,21.13
2022-11-02T00:26:46.900Z,21.12
2022-11-02T00:27:08.633Z,21.11
2022-11-02T00:27:31.751Z,21.07
2022-11-02T00:27:53.423Z,21.10
2022-11-02T00:28:15.578Z,21.09
2022-11-02T00:28:37.525Z,21.12
2022-11-02T00:29:00.424Z,21.13
2022-11-02T00:29:24.148Z,21.15
2022-11-02T00:29:45.785Z,21.15
2022-11-02T00:30:08.734Z,21.14
2022-11-02T00:30:31.542Z,21.15
2022-11-02T00:30:53.137Z,21.16
2022-11-02T00:31:14.778Z,21.17
2022-11-02T00:31:36.971Z,21.09
2022-11-02T00:32:00.103Z,21.09
2022-11-02T00:32:21.751Z,21.09
2022-11-02T00:32:43.450Z,21.09
2022-11-02T00:33:05.338Z,21.08
2022-11-02T00:33:27.916Z,21.08
2022-11-02T00:33:52.366Z,21.13
2022-11-02T00:34:13.929Z,21.14
2022-11-02T00:34:35.483Z,21.13
2022-11-02T00:34:57.074Z,21.12
2022-11-02T00:35:19.675Z,21.11
2022-11-02T00:35:41.839Z,21.12
2022-11-02T00:36:03.645Z,21.14
2022-11-02T00:36:25.293Z,21.12
2022-11-02T00:36:50.588Z,21.11
2022-11-02T00:37:15.602Z,21.11
2022-11-02T00:37:37.473Z,21.10
2022-11-02T00:37:59.063Z,21.13
2022-11-02T00:38:20.763Z,21.16
2022-11-02T00:38:42.354Z,21.17
2022-11-02T00:39:05.088Z,21.14
2022-11-02T00:39:26.618Z,21.10
2022-11-02T00:39:48.533Z,21.14
2022-11-02T00:40:11.222Z,21.14
2022-11-02T00:40:33.834Z,21.14
2022-11-02T00:40:55.513Z,21.15
2022-11-02T00:41:18.342Z,21.16
2022-11-02T00:41:40.160Z,21.15
2022-11-02T00:42:02.808Z,21.11
2022-11-02T00:42:24.546Z,21.02
2022-11-02T00:42:46.155Z,21.06
2022-11-02T00:43:07.803Z,21.02
2022-11-02T00:43:29.435Z,21.08
2022-11-02T00:43:52.056Z,21.04
2022-11-02T00:44:13.599Z,21.02
2022-11-02T00:44:35.184Z,21.02
2022-11-02T00:44:56.814Z,20.97
2022-11-02T00:45:18.618Z,20.98
2022-11-02T00:45:42.341Z,21.01
2022-11-02T00:46:04.940Z,21.02
2022-11-02T00:46:26.548Z,20.97
2022-11-02T00:46:48.291Z,20.96
2022-11-02T00:47:12.584Z,21.01
2022-11-02T00:47:34.433Z,20.79
2022-11-02T00:47:56.009Z,20.95
2022-11-02T00:48:17.593Z,20.91
2022-11-02T00:48:39.179Z,20.93
2022-11-02T00:49:03.266Z,20.97
2022-11-02T00:49:28.243Z,20.95
2022-11-02T00:49:49.939Z,20.95
2022-11-02T00:50:11.751Z,20.97
2022-11-02T00:50:35.858Z,20.86
2022-11-02T00:50:58.149Z,20.87
2022-11-02T00:51:22.997Z,20.92
2022-11-02T00:51:44.939Z,20.88
2022-11-02T00:52:11.127Z,20.79
2022-11-02T00:52:32.768Z,20.78
2022-11-02T00:52:54.799Z,20.76
2022-11-02T00:53:18.554Z,20.78
2022-11-02T00:53:46.177Z,20.81
2022-11-02T00:54:07.708Z,20.82
2022-11-02T00:54:29.320Z,20.79
2022-11-02T00:54:50.989Z,20.80
2022-11-02T00:55:15.112Z,20.85
2022-11-02T00:55:38.643Z,20.84
2022-11-02T00:56:00.218Z,20.83
2022-11-02T00:56:21.943Z,20.88
2022-11-02T00:56:44.693Z,20.90
2022-11-02T00:57:06.300Z,20.91
2022-11-02T00:57:28.022Z,20.93
2022-11-02T00:57:50.812Z,20.94
2022-11-02T00:58:13.212Z,20.89
2022-11-02T00:58:34.847Z,20.91
2022-11-02T00:58:57.682Z,20.90
2022-11-02T00:59:20.254Z,20.86
2022-11-02T00:59:41.894Z,20.88
2022-11-02T01:00:04.250Z,20.86
2022-11-02T01:00:25.816Z,20.86
2022-11-02T01:00:48.403Z,20.87
2022-11-02T01:01:10.162Z,20.88
2022-11-02T01:01:31.894Z,20.87
2022-11-02T01:01:54.540Z,20.85
2022-11-02T01:02:17.484Z,20.87
2022-11-02T01:02:39.350Z,20.88
2022-11-02T01:03:01.246Z,20.78
2022-11-02T01:03:22.883Z,20.73
2022-11-02T01:03:45.850Z,20.79
2022-11-02T01:04:08.782Z,20.82
2022-11-02T01:04:30.368Z,20.83
2022-11-02T01:04:52.047Z,20.83
2022-11-02T01:05:13.974Z,20.86
2022-11-02T01:05:37.543Z,20.86
2022-11-02T01:05:59.169Z,20.83
2022-11-02T01:06:20.738Z,20.86
2022-11-02T01:06:42.587Z,20.84
2022-11-02T01:07:04.268Z,20.68
2022-11-02T01:07:28.851Z,20.81
2022-11-02T01:07:50.412Z,20.85
2022-11-02T01:08:12.048Z,20.84
2022-11-02T01:08:33.636Z,20.85
2022-11-02T01:08:56.184Z,20.88
2022-11-02T01:09:18.334Z,20.89
2022-11-02T01:09:39.971Z,20.87
2022-11-02T01:10:02.066Z,20.85
2022-11-02T01:10:25.862Z,20.84
2022-11-02T01:10:48.572Z,20.85
2022-11-02T01:11:13.238Z,20.89
2022-11-02T01:11:34.878Z,20.88
2022-11-02T01:11:56.588Z,20.90
2022-11-02T01:12:19.226Z,20.92
2022-11-02T01:12:40.899Z,20.90
2022-11-02T01:13:05.169Z,20.90
2022-11-02T01:13:26.745Z,20.85
2022-11-02T01:13:50.262Z,20.93
2022-11-02T01:14:14.082Z,20.98
2022-11-02T01:14:36.397Z,20.97
2022-11-02T01:14:58.038Z,20.95
2022-11-02T01:15:19.787Z,21.01
2022-11-02T01:15:43.032Z,21.01
2022-11-02T01:16:05.111Z,20.99
2022-11-02T01:16:26.998Z,20.98
2022-11-02T01:16:48.901Z,21.00
2022-11-02T01:17:11.442Z,20.94
2022-11-02T01:17:33.234Z,20.86
2022-11-02T01:17:54.850Z,20.89
2022-11-02T01:18:16.490Z,20.91
2022-11-02T01:18:38.094Z,20.91
2022-11-02T01:19:02.031Z,20.84
2022-11-02T01:19:25.793Z,20.91
2022-11-02T01:19:47.497Z,20.94
2022-11-02T01:20:10.226Z,20.95
2022-11-02T01:20:33.111Z,20.94
2022-11-02T01:20:56.322Z,20.97
2022-11-02T01:21:17.871Z,20.91
2022-11-02T01:21:39.461Z,20.88
2022-11-02T01:22:01.963Z,20.89
2022-11-02T01:22:23.537Z,20.92
2022-11-02T01:22:45.069Z,20.94
2022-11-02T01:23:07.277Z,20.94
2022-11-02T01:23:32.783Z,20.92
2022-11-02T01:23:55.829Z,20.82
2022-11-02T01:24:17.397Z,20.90
2022-11-02T01:24:38.943Z,20.89
2022-11-02T01:25:01.473Z,20.90
2022-11-02T01:25:23.032Z,20.91
2022-11-02T01:25:46.853Z,20.93
2022-11-02T01:26:11.742Z,20.94
2022-11-02T01:26:34.356Z,20.94
2022-11-02T01:26:56.053Z,20.97
2022-11-02T01:27:17.623Z,21.00
2022-11-02T01:27:39.552Z,21.02
2022-11-02T01:28:02.336Z,21.01
2022-11-02T01:28:24.299Z,21.06
2022-11-02T01:28:45.973Z,21.08
2022-11-02T01:29:07.852Z,21.10
2022-11-02T01:29:29.531Z,21.08
2022-11-02T01:29:52.095Z,21.07
2022-11-02T01:30:41.835Z,21.05
2022-11-02T01:31:03.970Z,21.04
2022-11-02T01:31:26.857Z,21.02
2022-11-02T01:31:48.574Z,21.07
2022-11-02T01:32:11.981Z,21.06
2022-11-02T01:32:33.560Z,21.04
2022-11-02T01:32:56.106Z,21.02
2022-11-02T01:33:17.662Z,21.04
2022-11-02T01:33:43.446Z,21.02
2022-11-02T01:34:05.006Z,21.04
2022-11-02T01:34:28.983Z,21.07
2022-11-02T01:34:50.533Z,21.07
2022-11-02T01:35:12.116Z,21.08
2022-11-02T01:35:33.787Z,21.06
2022-11-02T01:35:55.892Z,20.95
2022-11-02T01:36:48.160Z,21.08
2022-11-02T01:37:11.793Z,21.06
2022-11-02T01:37:33.797Z,21.03
2022-11-02T01:37:56.418Z,21.05
2022-11-02T01:38:17.984Z,21.05
2022-11-02T01:38:40.787Z,21.05
2022-11-02T01:39:02.689Z,21.05
2022-11-02T01:39:24.305Z,21.01
2022-11-02T01:39:47.079Z,21.00
2022-11-02T01:40:09.716Z,21.02
2022-11-02T01:40:35.248Z,21.03
2022-11-02T01:40:56.898Z,21.05
2022-11-02T01:41:20.401Z,21.02
2022-11-02T01:41:43.197Z,21.03
2022-11-02T01:42:17.451Z,21.03
2022-11-02T01:42:39.958Z,21.03
2022-11-02T01:43:19.188Z,20.99
2022-11-02T01:43:42.404Z,20.99
2022-11-02T01:44:04.876Z,20.98
2022-11-02T01:44:29.274Z,20.98
2022-11-02T01:44:52.065Z,20.98
2022-11-02T01:45:14.272Z,21.00
2022-11-02T01:45:35.915Z,21.00
2022-11-02T01:46:01.316Z,21.00
2022-11-02T01:46:28.345Z,21.02
2022-11-02T01:46:49.996Z,21.01
2022-11-02T01:47:16.330Z,21.00
2022-11-02T01:47:41.684Z,20.98
2022-11-02T01:48:03.795Z,20.98
2022-11-02T01:48:34.825Z,21.00
2022-11-02T01:49:01.311Z,20.98
2022-11-02T01:49:24.966Z,20.97
2022-11-02T01:49:51.146Z,20.96
2022-11-02T01:50:16.770Z,20.98
2022-11-02T01:50:39.129Z,20.96
2022-11-02T01:51:06.570Z,20.98
2022-11-02T01:51:32.751Z,21.00
2022-11-02T01:51:59.753Z,20.98
2022-11-02T01:52:27.254Z,20.98
2022-11-02T01:52:48.816Z,20.98
2022-11-02T01:53:10.684Z,20.97
2022-11-02T01:53:34.751Z,20.99
2022-11-02T01:54:00.648Z,20.96
2022-11-02T01:54:25.248Z,20.98
2022-11-02T01:54:53.699Z,21.01
2022-11-02T01:55:19.306Z,20.98
2022-11-02T01:55:42.372Z,21.02
2022-11-02T01:56:05.512Z,21.02
2022-11-02T01:56:31.689Z,21.03
2022-11-02T01:56:58.054Z,21.02
2022-11-02T01:57:22.926Z,21.00
2022-11-02T01:57:49.382Z,20.99
2022-11-02T01:58:12.463Z,20.99
2022-11-02T01:58:35.155Z,20.99
2022-11-02T01:59:00.998Z,20.98
2022-11-02T01:59:28.550Z,20.97
2022-11-02T01:59:54.260Z,20.98
2022-11-02T02:00:18.029Z,21.01
2022-11-02T02:00:40.513Z,21.03
2022-11-02T02:01:02.490Z,20.97
2022-11-02T02:01:24.465Z,20.96
2022-11-02T02:01:46.371Z,20.96
2022-11-02T02:02:18.495Z,20.97
2022-11-02T02:02:45.904Z,20.96
2022-11-02T02:03:09.560Z,20.82
2022-11-02T02:03:36.167Z,20.97
2022-11-02T02:03:58.284Z,20.97
2022-11-02T02:04:21.927Z,20.97
2022-11-02T02:04:45.321Z,20.95
2022-11-02T02:05:12.009Z,20.89
2022-11-02T02:05:36.068Z,20.92
2022-11-02T02:06:02.803Z,20.96
2022-11-02T02:06:26.097Z,20.98
2022-11-02T02:06:49.215Z,21.01
2022-11-02T02:07:14.594Z,21.01
2022-11-02T02:07:38.761Z,20.97
2022-11-02T02:08:02.715Z,21.01
2022-11-02T02:08:27.053Z,21.00
2022-11-02T02:08:51.868Z,21.01
2022-11-02T02:09:14.570Z,20.99
2022-11-02T02:09:36.401Z,21.03
2022-11-02T02:09:58.643Z,21.00
2022-11-02T02:10:21.564Z,20.94
2022-11-02T02:10:43.969Z,20.96
2022-11-02T02:11:28.014Z,20.99
2022-11-02T02:11:50.560Z,21.00
2022-11-02T02:12:12.564Z,21.01
2022-11-02T02:12:36.080Z,20.98
2022-11-02T02:12:58.681Z,20.76
2022-11-02T02:13:20.306Z,20.95
2022-11-02T02:13:41.905Z,20.95
2022-11-02T02:14:06.634Z,20.93
2022-11-02T02:14:37.156Z,20.96
2022-11-02T02:14:59.716Z,20.95
2022-11-02T02:15:29.949Z,20.95
2022-11-02T02:16:00.607Z,20.96
2022-11-02T02:16:34.253Z,20.94
2022-11-02T02:17:08.005Z,20.94
2022-11-02T02:17:40.936Z,20.96
2022-11-02T02:18:12.150Z,20.96
2022-11-02T02:18:41.979Z,20.94
2022-11-02T02:19:11.113Z,20.94
2022-11-02T02:19:40.558Z,20.94
2022-11-02T02:20:08.709Z,20.93
2022-11-02T02:20:46.313Z,20.93
2022-11-02T02:21:25.294Z,20.92
2022-11-02T02:22:04.064Z,20.95
2022-11-02T02:23:11.652Z,20.95
2022-11-02T02:23:50.268Z,20.97
2022-11-02T02:24:28.406Z,20.95
2022-11-02T02:24:58.228Z,20.95
2022-11-02T02:25:32.230Z,20.91
2022-11-02T02:26:15.535Z,20.91
2022-11-02T02:27:01.769Z,20.89
2022-11-02T02:27:30.037Z,20.89
2022-11-02T02:28:06.469Z,20.86
2022-11-02T02:28:38.847Z,20.86
2022-11-02T02:29:03.383Z,20.83
2022-11-02T02:29:32.767Z,20.79
2022-11-02T02:30:05.717Z,20.83
2022-11-02T02:30:30.625Z,20.87
2022-11-02T02:30:58.523Z,20.78
2022-11-02T02:31:31.161Z,20.82
2022-11-02T02:31:59.315Z,20.83
2022-11-02T02:32:27.941Z,20.79
2022-11-02T02:32:55.826Z,20.85
2022-11-02T02:33:27.845Z,20.87
2022-11-02T02:33:57.319Z,20.88
2022-11-02T02:34:21.102Z,20.89
2022-11-02T02:34:51.346Z,20.89
2022-11-02T02:35:22.011Z,20.88
2022-11-02T02:35:46.883Z,20.89
2022-11-02T02:36:13.288Z,20.88
2022-11-02T02:36:40.759Z,20.81
2022-11-02T02:37:07.982Z,20.78
2022-11-02T02:37:36.714Z,20.78
2022-11-02T02:38:02.013Z,20.77
2022-11-02T02:38:31.189Z,20.79
2022-11-02T02:39:02.326Z,20.82
2022-11-02T02:39:28.456Z,20.81
2022-11-02T02:39:55.266Z,20.80
2022-11-02T02:40:23.062Z,20.81
2022-11-02T02:40:49.773Z,20.78
2022-11-02T02:41:14.175Z,20.83
2022-11-02T02:41:39.611Z,20.80
2022-11-02T02:42:09.088Z,20.80
2022-11-02T02:42:35.596Z,20.78
2022-11-02T02:43:06.792Z,20.79
2022-11-02T02:43:34.361Z,20.77
2022-11-02T02:43:59.642Z,20.85
2022-11-02T02:44:26.024Z,20.86
2022-11-02T02:44:53.620Z,20.88
2022-11-02T02:45:20.415Z,20.87
2022-11-02T02:45:47.401Z,20.89
2022-11-02T02:46:13.470Z,20.89
2022-11-02T02:46:42.782Z,20.88
2022-11-02T02:47:10.581Z,20.88
2022-11-02T02:47:36.037Z,20.73
2022-11-02T02:48:03.223Z,20.88
2022-11-02T02:48:26.160Z,20.83
2022-11-02T02:48:49.815Z,20.83
2022-11-02T02:49:17.472Z,20.78
2022-11-02T02:49:44.327Z,20.79
2022-11-02T02:50:10.906Z,20.72
2022-11-02T02:50:37.346Z,20.74
2022-11-02T02:51:05.279Z,20.72
2022-11-02T02:51:31.601Z,20.73
2022-11-02T02:51:55.383Z,20.79
2022-11-02T02:52:20.440Z,20.75
2022-11-02T02:52:45.024Z,20.74
2022-11-02T02:53:07.990Z,20.79
2022-11-02T02:53:38.346Z,20.78
2022-11-02T02:54:03.544Z,20.82
2022-11-02T02:54:32.292Z,20.79
2022-11-02T02:54:58.857Z,20.84
2022-11-02T02:55:25.074Z,20.81
2022-11-02T02:55:50.416Z,20.83
2022-11-02T02:56:15.366Z,20.84
2022-11-02T02:56:41.020Z,20.82
2022-11-02T02:57:09.202Z,20.81
2022-11-02T02:57:33.264Z,20.83
2022-11-02T02:57:57.187Z,20.85
2022-11-02T02:58:24.142Z,20.87
2022-11-02T02:58:51.010Z,20.86
2022-11-02T02:59:18.796Z,20.84
2022-11-02T02:59:43.338Z,20.85
2022-11-02T03:00:13.150Z,20.81
2022-11-02T03:00:36.508Z,20.79
2022-11-02T03:01:00.731Z,20.80
2022-11-02T03:01:26.055Z,20.81
2022-11-02T03:01:48.338Z,20.78
2022-11-02T03:02:15.005Z,20.76
2022-11-02T03:02:40.071Z,20.83
2022-11-02T03:03:05.440Z,20.86
2022-11-02T03:03:28.722Z,20.88
2022-11-02T03:03:50.320Z,20.76
2022-11-02T03:04:12.957Z,20.79
2022-11-02T03:04:34.573Z,20.85
2022-11-02T03:04:57.090Z,20.82
2022-11-02T03:05:24.078Z,20.79
2022-11-02T03:06:01.608Z,20.86
2022-11-02T03:06:27.714Z,20.87
2022-11-02T03:06:54.406Z,20.84
2022-11-02T03:07:20.859Z,20.87
2022-11-02T03:07:48.297Z,20.87
2022-11-02T03:08:14.114Z,20.86
2022-11-02T03:08:39.497Z,20.88
2022-11-02T03:09:09.186Z,20.88
2022-11-02T03:09:40.045Z,20.88
2022-11-02T03:10:12.637Z,20.86
2022-11-02T03:10:42.511Z,20.89
2022-11-02T03:11:12.578Z,20.88
2022-11-02T03:11:40.582Z,20.88
2022-11-02T03:12:14.558Z,20.90
2022-11-02T03:12:45.154Z,20.83
2022-11-02T03:13:28.311Z,20.81
2022-11-02T03:14:06.560Z,20.80
2022-11-02T03:14:41.401Z,20.78
2022-11-02T03:15:11.108Z,20.76
2022-11-02T03:15:41.006Z,20.78
2022-11-02T03:16:11.702Z,20.81
2022-11-02T03:16:50.743Z,20.80
2022-11-02T03:17:17.901Z,20.83
2022-11-02T03:17:51.080Z,20.80
2022-11-02T03:18:21.259Z,20.76
2022-11-02T03:18:49.291Z,20.76
2022-11-02T03:19:21.876Z,20.78
2022-11-02T03:19:51.251Z,20.72
2022-11-02T03:20:21.924Z,20.74
2022-11-02T03:20:57.115Z,20.78
2022-11-02T03:21:26.686Z,20.79
2022-11-02T03:21:55.149Z,20.80
2022-11-02T03:22:27.352Z,20.76
2022-11-02T03:22:57.463Z,20.83
2022-11-02T03:23:26.732Z,20.82
2022-11-02T03:23:54.544Z,20.85
2022-11-02T03:24:22.943Z,20.80
2022-11-02T03:24:54.689Z,20.81
2022-11-02T03:25:23.063Z,20.78
2022-11-02T03:25:55.624Z,20.81
2022-11-02T03:26:23.770Z,20.85
2022-11-02T03:26:48.993Z,20.86
2022-11-02T03:27:20.131Z,20.86
2022-11-02T03:27:51.106Z,20.91
2022-11-02T03:28:18.667Z,20.92
2022-11-02T03:28:55.605Z,20.94
2022-11-02T03:29:21.388Z,20.96
2022-11-02T03:29:52.745Z,20.96
2022-11-02T03:30:17.849Z,20.95
2022-11-02T03:30:45.766Z,20.90
2022-11-02T03:31:13.504Z,21.01
2022-11-02T03:31:41.777Z,21.00
2022-11-02T03:32:10.202Z,21.00
2022-11-02T03:32:40.157Z,20.99
2022-11-02T03:33:07.659Z,21.03
2022-11-02T03:33:35.160Z,21.01
2022-11-02T03:34:04.601Z,21.02
2022-11-02T03:34:34.765Z,21.01
2022-11-02T03:35:00.212Z,20.99
2022-11-02T03:35:31.059Z,20.98
2022-11-02T03:35:56.667Z,20.98
2022-11-02T03:36:26.702Z,21.01
2022-11-02T03:36:52.029Z,20.99
2022-11-02T03:37:18.219Z,20.97
2022-11-02T03:37:45.126Z,20.91
2022-11-02T03:38:14.453Z,20.89
2022-11-02T03:38:44.349Z,20.87
2022-11-02T03:39:08.675Z,20.86
2022-11-02T03:39:37.973Z,20.87
2022-11-02T03:40:08.398Z,20.89
2022-11-02T03:40:34.044Z,20.90
2022-11-02T03:40:56.935Z,20.92
2022-11-02T03:41:23.858Z,20.94
2022-11-02T03:41:48.227Z,20.93
2022-11-02T03:42:13.739Z,20.91
2022-11-02T03:42:36.909Z,20.91
2022-11-02T03:43:01.616Z,20.86
2022-11-02T03:43:25.031Z,20.93
2022-11-02T03:43:55.650Z,20.95
2022-11-02T03:44:22.903Z,20.97
2022-11-02T03:44:47.252Z,20.99
2022-11-02T03:45:13.400Z,21.02
2022-11-02T03:45:39.690Z,21.01
2022-11-02T03:46:03.445Z,21.00
2022-11-02T03:46:29.421Z,21.04
2022-11-02T03:46:56.903Z,21.00
2022-11-02T03:47:21.010Z,20.93
2022-11-02T03:47:46.946Z,20.94
2022-11-02T03:48:12.488Z,20.90
2022-11-02T03:48:40.361Z,20.86
2022-11-02T03:49:07.593Z,20.88
2022-11-02T03:49:31.730Z,20.90
2022-11-02T03:49:56.561Z,20.89
2022-11-02T03:50:21.522Z,20.88
2022-11-02T03:50:48.943Z,20.84
2022-11-02T03:51:15.838Z,20.84
2022-11-02T03:51:42.080Z,20.86
2022-11-02T03:52:08.691Z,20.87
2022-11-02T03:52:36.038Z,20.74
2022-11-02T03:53:01.932Z,20.79
2022-11-02T03:53:32.711Z,20.82
2022-11-02T03:53:59.291Z,20.83
2022-11-02T03:54:29.799Z,20.84
2022-11-02T03:54:58.806Z,20.89
2022-11-02T03:55:28.085Z,20.88
2022-11-02T03:55:55.772Z,20.77
2022-11-02T03:56:23.085Z,20.83
2022-11-02T03:56:49.305Z,20.82
2022-11-02T03:57:19.879Z,20.74
2022-11-02T03:57:45.597Z,20.85
2022-11-02T03:58:11.336Z,20.86
2022-11-02T03:58:35.287Z,20.87
2022-11-02T03:58:59.709Z,20.83
2022-11-02T03:59:21.576Z,20.87
2022-11-02T03:59:44.313Z,20.86
2022-11-02T04:00:08.204Z,20.87
2022-11-02T04:00:39.299Z,20.85
2022-11-02T04:01:08.263Z,20.86
2022-11-02T04:01:37.309Z,20.83
2022-11-02T04:02:01.891Z,20.68
2022-11-02T04:02:26.311Z,20.71
2022-11-02T04:02:50.382Z,20.69
2022-11-02T04:03:13.619Z,20.75
2022-11-02T04:03:43.009Z,20.75
2022-11-02T04:04:06.068Z,20.73
2022-11-02T04:04:28.366Z,20.76
2022-11-02T04:04:51.941Z,20.66
2022-11-02T04:05:16.086Z,20.76
2022-11-02T04:05:39.997Z,20.65
2022-11-02T04:06:12.899Z,20.68
2022-11-02T04:06:35.659Z,20.63
2022-11-02T04:06:57.951Z,20.66
2022-11-02T04:07:25.458Z,20.69
2022-11-02T04:08:06.567Z,20.74
2022-11-02T04:08:33.005Z,20.81
2022-11-02T04:08:57.830Z,20.81
2022-11-02T04:09:19.512Z,20.84
2022-11-02T04:09:41.375Z,20.84
2022-11-02T04:10:04.047Z,20.86
2022-11-02T04:10:25.744Z,20.84
2022-11-02T04:11:07.470Z,20.88
2022-11-02T04:11:49.492Z,20.86
2022-11-02T04:12:29.445Z,20.89
2022-11-02T04:13:09.309Z,20.88
2022-11-02T04:13:49.731Z,20.85
2022-11-02T04:14:31.504Z,20.70
2022-11-02T04:14:54.325Z,20.72
2022-11-02T04:15:16.887Z,20.73
2022-11-02T04:15:38.588Z,20.78
2022-11-02T04:16:00.174Z,20.79
2022-11-02T04:16:26.720Z,20.79
2022-11-02T04:17:11.138Z,20.77
2022-11-02T04:17:52.568Z,20.75
2022-11-02T04:18:32.956Z,20.81
2022-11-02T04:19:13.528Z,20.74
2022-11-02T04:19:35.229Z,20.75
2022-11-02T04:20:00.713Z,20.71
2022-11-02T04:20:22.248Z,20.71
2022-11-02T04:20:43.842Z,20.71
2022-11-02T04:21:06.485Z,20.75
2022-11-02T04:21:28.589Z,20.74
2022-11-02T04:22:06.688Z,20.77
2022-11-02T04:22:49.320Z,20.56
2022-11-02T04:23:29.725Z,20.71
2022-11-02T04:24:09.801Z,20.63
2022-11-02T04:24:50.166Z,20.68
2022-11-02T04:25:20.677Z,20.73
2022-11-02T04:26:01.527Z,20.63
2022-11-02T04:26:30.683Z,20.68
2022-11-02T04:26:52.266Z,20.66
2022-11-02T04:27:18.069Z,20.72
2022-11-02T04:27:43.735Z,20.74
2022-11-02T04:28:09.433Z,20.73
2022-11-02T04:28:39.875Z,20.78
2022-11-02T04:29:02.059Z,20.75
2022-11-02T04:29:26.718Z,20.77
2022-11-02T04:29:48.432Z,20.74
2022-11-02T04:30:11.019Z,20.75
2022-11-02T04:30:33.503Z,20.72
2022-11-02T04:30:58.058Z,20.73
2022-11-02T04:31:20.166Z,20.67
2022-11-02T04:31:41.834Z,20.67
2022-11-02T04:32:03.411Z,20.67
2022-11-02T04:32:43.482Z,20.69
2022-11-02T04:33:26.988Z,20.76
2022-11-02T04:33:59.685Z,20.76
2022-11-02T04:34:22.183Z,20.79
2022-11-02T04:34:43.758Z,20.78
2022-11-02T04:35:06.888Z,20.72
2022-11-02T04:35:29.390Z,20.70
2022-11-02T04:35:51.234Z,20.65
2022-11-02T04:36:14.891Z,20.69
2022-11-02T04:36:37.009Z,20.74
2022-11-02T04:36:58.612Z,20.73
2022-11-02T04:37:35.135Z,20.77
2022-11-02T04:38:16.006Z,20.75
2022-11-02T04:38:40.726Z,20.73
2022-11-02T04:39:23.551Z,20.72
2022-11-02T04:39:45.284Z,20.57
2022-11-02T04:40:07.726Z,20.66
2022-11-02T04:40:30.462Z,20.67
2022-11-02T04:41:13.015Z,20.67
2022-11-02T04:41:43.724Z,20.65
2022-11-02T04:42:19.477Z,20.68
2022-11-02T04:42:52.271Z,20.65
2022-11-02T04:43:14.894Z,20.70
2022-11-02T04:43:36.723Z,20.71
2022-11-02T04:43:58.946Z,20.66
2022-11-02T04:44:22.569Z,20.58
2022-11-02T04:44:55.849Z,20.57
2022-11-02T04:45:19.356Z,20.60
2022-11-02T04:45:41.480Z,20.59
2022-11-02T04:46:04.353Z,20.52
2022-11-02T04:46:28.373Z,20.52
2022-11-02T04:46:51.668Z,20.58
2022-11-02T04:47:15.038Z,20.61
2022-11-02T04:47:36.787Z,20.60
2022-11-02T04:48:02.189Z,20.67
2022-11-02T04:48:24.019Z,20.62
2022-11-02T04:48:46.658Z,20.65
2022-11-02T04:49:09.349Z,20.66
2022-11-02T04:49:31.885Z,20.65
2022-11-02T04:49:54.842Z,20.64
2022-11-02T04:50:17.244Z,20.64
2022-11-02T04:50:39.474Z,20.69
2022-11-02T04:51:01.038Z,20.69
2022-11-02T04:51:25.107Z,20.61
2022-11-02T04:51:49.758Z,20.62
2022-11-02T04:52:14.628Z,20.62
2022-11-02T04:52:41.248Z,20.62
2022-11-02T04:53:06.983Z,20.59
2022-11-02T04:53:28.914Z,20.64
2022-11-02T04:53:52.664Z,20.65
2022-11-02T04:54:14.613Z,20.67
2022-11-02T04:54:36.222Z,20.68
2022-11-02T04:55:01.118Z,20.64
2022-11-02T04:55:22.844Z,20.72
2022-11-02T04:55:46.374Z,20.72
2022-11-02T04:56:09.675Z,20.76
2022-11-02T04:56:32.411Z,20.79
2022-11-02T04:56:54.157Z,20.76
2022-11-02T04:57:18.977Z,20.75
2022-11-02T04:57:44.718Z,20.75
2022-11-02T04:58:07.539Z,20.78
2022-11-02T04:58:29.417Z,20.72
2022-11-02T04:58:52.031Z,20.56
2022-11-02T04:59:13.807Z,20.67
2022-11-02T04:59:35.379Z,20.57
2022-11-02T05:00:01.106Z,20.69
2022-11-02T05:00:24.901Z,20.41
2022-11-02T05:00:47.798Z,20.42
2022-11-02T05:01:14.017Z,20.38
2022-11-02T05:01:38.733Z,20.40
2022-11-02T05:02:00.768Z,20.48
2022-11-02T05:02:22.913Z,20.46
2022-11-02T05:02:46.843Z,20.52
2022-11-02T05:03:12.427Z,20.50
2022-11-02T05:03:35.989Z,20.51
2022-11-02T05:03:58.022Z,20.51
2022-11-02T05:04:21.966Z,20.49
2022-11-02T05:04:45.716Z,20.49
2022-11-02T05:05:09.293Z,20.46
2022-11-02T05:05:31.044Z,20.51
2022-11-02T05:05:54.806Z,20.49
2022-11-02T05:06:18.742Z,20.53
2022-11-02T05:06:40.464Z,20.56
2022-11-02T05:07:06.301Z,20.57
2022-11-02T05:07:29.319Z,20.58
2022-11-02T05:07:51.318Z,20.44
2022-11-02T05:08:13.916Z,20.46
2022-11-02T05:08:36.304Z,20.41
2022-11-02T05:08:57.912Z,20.47
2022-11-02T05:09:20.282Z,20.46
2022-11-02T05:09:44.163Z,20.46
2022-11-02T05:10:07.973Z,20.51
2022-11-02T05:10:30.397Z,20.52
2022-11-02T05:10:54.828Z,20.55
2022-11-02T05:11:17.665Z,20.57
2022-11-02T05:11:39.317Z,20.59
2022-11-02T05:12:01.841Z,20.60
2022-11-02T05:12:28.909Z,20.53
2022-11-02T05:12:57.682Z,20.54
2022-11-02T05:13:20.919Z,20.54
2022-11-02T05:13:44.456Z,20.55
2022-11-02T05:14:06.191Z,20.60
2022-11-02T05:14:29.111Z,20.59
2022-11-02T05:14:50.810Z,20.55
2022-11-02T05:15:13.746Z,20.55
2022-11-02T05:15:35.461Z,20.44
2022-11-02T05:16:01.751Z,20.43
2022-11-02T05:16:24.170Z,20.46
2022-11-02T05:16:48.367Z,20.47
2022-11-02T05:17:09.926Z,20.48
2022-11-02T05:17:32.883Z,20.51
2022-11-02T05:17:55.744Z,20.45
2022-11-02T05:18:19.084Z,20.47
2022-11-02T05:18:41.756Z,20.45
2022-11-02T05:19:05.681Z,20.47
2022-11-02T05:19:30.982Z,20.47
2022-11-02T05:19:55.865Z,20.38
2022-11-02T05:20:17.488Z,20.41
2022-11-02T05:20:39.188Z,20.30
2022-11-02T05:21:01.818Z,20.29
2022-11-02T05:21:25.897Z,20.33
2022-11-02T05:21:49.734Z,20.23
2022-11-02T05:22:12.280Z,20.19
2022-11-02T05:22:33.937Z,20.17
2022-11-02T05:22:56.471Z,20.15
2022-11-02T05:23:20.017Z,20.14
2022-11-02T05:23:41.800Z,20.15
2022-11-02T05:24:05.617Z,20.14
2022-11-02T05:24:28.059Z,20.21
2022-11-02T05:24:50.038Z,20.10
2022-11-02T05:25:13.003Z,20.05
2022-11-02T05:25:35.836Z,19.98
2022-11-02T05:25:59.141Z,20.05
2022-11-02T05:26:20.799Z,20.02
2022-11-02T05:26:46.006Z,20.01